Página principal
METAR-TAF:

METAR-TAF

Aeroportos :

Qyzylorda, Cazaquistão

latitude: 44-51N, longitude: 065-30E, altura: 129 m

Observação actual do tempo

O boletim foi feito há 34 minutos, às 02:30 UTC
Vento 17 kt de oeste
Temperatura 12°C
Humidade 71%
Pressão 1007 hPa
Visibilidade 10 km ou mais
Poucas nuvensa uma altura de 4300 ft

METAR: UAOO 190230Z 26009MPS 9999 FEW043 12/07 Q1007 R23/CLRD70 NOSIG RMK QFE744/0992

Hora: 09:04 (03:04 UTC)

Previsão

O boletim foi feito há 4 horas e 4 minutos, às 23:00 UTC
Previsão válida de 19 às 00 UTC a 19 às 09 UTC
Vento 14 kt de sudoeste
Visibilidade 10 km ou mais
Nuvens fragmentadasa uma altura de 3300 ft, Cumulonimbus.
Temporariamente
de 19 às 03 UTC a 19 às 09 UTC
Vento 23 kt de oes-sudoeste com rajadas de 33 kt

TAF: UAOO 182300Z 1900/1909 23007MPS 9999 BKN033CB TEMPO 1903/1909 25012G17MPS

Observações e previsões do tempo de mais de 4000 aeroportos (mensagens METAR e TAF).

As estações disponíveis são os pontos amarelos e vermelhos sobre o mapa.

Mova o rato sobre o mapa para ver o nome da estação.

Depois clique no ponto para visualizar as observações e previsões meteorológicas.

Para alterar o mapa : clique nos botões verdes com uma cruz preta para aumentar o zoom; no botão verde com uma pitada de zoom; ou nas setas verdes para mapas adjacentes.


METAR-TAF: